createdAt,value
2023-08-15T05:21:20.151Z,22.18
2023-08-15T05:24:24.333Z,22.35
2023-08-15T05:27:26.864Z,22.46
2023-08-15T05:30:29.439Z,22.79
2023-08-15T05:33:31.964Z,23.50
2023-08-15T05:36:36.029Z,23.43
2023-08-15T05:39:38.609Z,23.16
2023-08-15T05:42:41.383Z,23.05
2023-08-15T05:45:45.075Z,23.08
2023-08-15T05:48:47.662Z,23.12
2023-08-15T05:51:51.541Z,23.24
2023-08-15T05:54:54.367Z,23.52
2023-08-15T05:57:57.744Z,24.12
2023-08-15T06:01:00.503Z,24.29
2023-08-15T06:04:03.637Z,24.75
2023-08-15T06:07:07.684Z,25.19
2023-08-15T06:10:10.582Z,25.16
2023-08-15T06:13:13.131Z,25.17
2023-08-15T06:16:15.669Z,25.20
2023-08-15T06:19:19.317Z,25.71
2023-08-15T06:22:23.181Z,26.43
2023-08-15T06:25:25.808Z,26.17
2023-08-15T06:28:28.372Z,26.41
2023-08-15T06:31:32.847Z,26.18
2023-08-15T06:34:37.708Z,26.50
2023-08-15T06:37:41.804Z,26.31
2023-08-15T06:40:44.335Z,26.52
2023-08-15T06:43:47.220Z,26.57
2023-08-15T06:46:50.312Z,26.65
2023-08-15T06:49:52.900Z,26.95
2023-08-15T06:52:56.752Z,27.35
2023-08-15T06:55:59.596Z,27.38
2023-08-15T06:59:02.147Z,27.19
2023-08-15T07:02:07.230Z,26.82
2023-08-15T07:05:11.772Z,26.61
2023-08-15T07:08:15.693Z,27.13
2023-08-15T07:11:18.296Z,27.09
2023-08-15T07:14:20.878Z,27.57
2023-08-15T07:17:23.561Z,27.95
2023-08-15T07:20:26.190Z,27.98
2023-08-15T07:23:31.324Z,28.42
2023-08-15T07:26:33.911Z,28.32
2023-08-15T07:29:36.457Z,27.72
2023-08-15T07:32:39.535Z,27.86
2023-08-15T07:35:42.543Z,28.23
2023-08-15T07:38:46.363Z,28.27
2023-08-15T07:41:48.879Z,28.35
2023-08-15T07:44:51.415Z,28.14
2023-08-15T07:47:54.639Z,28.77
2023-08-15T07:50:57.388Z,29.02
2023-08-15T07:54:01.232Z,29.22
2023-08-15T07:57:03.771Z,29.34
2023-08-15T08:00:08.122Z,29.35
2023-08-15T08:03:11.753Z,29.53
2023-08-15T08:06:37.332Z,29.38
2023-08-15T08:09:38.157Z,29.67
2023-08-15T08:12:40.991Z,30.07
2023-08-15T08:15:43.538Z,30.36
2023-08-15T08:18:46.105Z,30.15
2023-08-15T08:21:48.798Z,30.22
2023-08-15T08:24:54.337Z,29.84
2023-08-15T08:27:57.086Z,29.87
2023-08-15T08:31:00.148Z,30.58
2023-08-15T08:34:02.780Z,30.94
2023-08-15T08:37:05.927Z,31.07
2023-08-15T08:40:13.774Z,30.74
2023-08-15T08:43:17.660Z,31.04
2023-08-15T08:46:20.868Z,30.95
2023-08-15T08:49:28.487Z,31.08
2023-08-15T08:52:32.861Z,30.99
2023-08-15T08:55:37.169Z,30.92
2023-08-15T08:58:43.890Z,31.15
2023-08-15T09:01:46.984Z,31.57
2023-08-15T09:04:49.903Z,31.86
2023-08-15T09:07:53.358Z,32.05
2023-08-15T09:10:57.193Z,32.07
2023-08-15T09:14:04.398Z,31.73
2023-08-15T09:17:06.964Z,32.13
2023-08-15T09:20:12.653Z,32.69
2023-08-15T09:23:15.627Z,32.24
2023-08-15T09:26:19.889Z,32.47
2023-08-15T09:29:23.914Z,33.10
2023-08-15T09:32:26.506Z,33.48
2023-08-15T09:35:29.134Z,33.22
2023-08-15T09:38:31.675Z,32.41
2023-08-15T09:41:36.075Z,32.18
2023-08-15T09:44:40.447Z,31.43
2023-08-15T09:47:44.302Z,31.75
2023-08-15T09:50:49.458Z,31.86
2023-08-15T09:53:52.032Z,31.75
2023-08-15T09:56:56.000Z,32.37
2023-08-15T09:59:58.535Z,32.20
2023-08-15T10:03:02.836Z,32.99
2023-08-15T10:06:09.044Z,33.12
2023-08-15T10:09:16.415Z,32.60
2023-08-15T10:12:20.947Z,31.83
2023-08-15T10:15:24.726Z,31.45
2023-08-15T10:18:27.410Z,32.05
2023-08-15T10:21:47.942Z,31.73
2023-08-15T10:24:51.254Z,32.25
2023-08-15T10:27:56.936Z,32.88
2023-08-15T10:30:59.612Z,31.97
2023-08-15T10:34:04.007Z,31.42
2023-08-15T10:37:28.178Z,30.95
2023-08-15T10:40:40.872Z,30.88
2023-08-15T10:43:50.562Z,30.89
2023-08-15T10:46:53.216Z,30.44
2023-08-15T10:49:55.814Z,30.03
2023-08-15T10:52:59.580Z,29.70
2023-08-15T10:56:05.625Z,29.72
2023-08-15T10:59:12.859Z,29.38
2023-08-15T11:02:15.537Z,29.34
2023-08-15T11:05:20.199Z,29.46
2023-08-15T11:08:22.758Z,29.84
2023-08-15T11:11:26.159Z,30.47
2023-08-15T11:14:30.004Z,30.78
2023-08-15T11:17:32.630Z,30.77
2023-08-15T11:20:35.254Z,31.10
2023-08-15T11:23:38.354Z,32.62
2023-08-15T11:26:41.769Z,33.80
2023-08-15T11:29:47.030Z,33.95
2023-08-15T11:32:50.920Z,34.11
2023-08-15T11:35:53.501Z,34.06
2023-08-15T11:38:57.770Z,33.74
2023-08-15T11:42:00.683Z,34.20
2023-08-15T11:45:10.895Z,34.60
2023-08-15T11:48:14.333Z,34.75
2023-08-15T11:51:22.384Z,34.58
2023-08-15T11:54:28.191Z,34.58
2023-08-15T11:57:39.696Z,34.13
2023-08-15T12:00:43.732Z,34.63
2023-08-15T12:03:46.371Z,34.79
2023-08-15T12:06:48.920Z,34.48
2023-08-15T12:09:51.472Z,34.60
2023-08-15T12:12:53.986Z,34.22
2023-08-15T12:15:57.890Z,34.57
2023-08-15T12:19:00.459Z,34.56
2023-08-15T12:22:03.015Z,34.95
2023-08-15T12:25:08.891Z,34.59
2023-08-15T12:28:11.439Z,34.70
2023-08-15T12:31:15.537Z,34.44
2023-08-15T12:34:18.679Z,34.06
2023-08-15T12:37:21.177Z,33.71
2023-08-15T12:43:31.832Z,33.69
2023-08-15T12:46:35.677Z,34.21
2023-08-15T12:49:38.599Z,34.39
2023-08-15T12:52:41.434Z,34.69
2023-08-15T12:55:45.265Z,34.92
2023-08-15T12:58:47.803Z,35.12
2023-08-15T13:01:51.936Z,35.33
2023-08-15T13:04:54.503Z,35.42
2023-08-15T13:07:57.064Z,35.68
2023-08-15T13:10:59.649Z,35.57
2023-08-15T13:14:02.426Z,35.55
2023-08-15T13:17:06.802Z,35.26
2023-08-15T13:20:12.269Z,35.35
2023-08-15T13:23:14.761Z,35.06
2023-08-15T13:26:19.965Z,34.96
2023-08-15T13:29:22.499Z,34.97
2023-08-15T13:32:26.334Z,35.00
2023-08-15T13:35:28.848Z,35.40
2023-08-15T13:38:31.383Z,35.18
2023-08-15T13:41:33.892Z,34.73
2023-08-15T13:44:40.248Z,34.99
2023-08-15T13:47:44.546Z,35.63
2023-08-15T13:50:47.312Z,35.92
2023-08-15T13:53:50.461Z,35.91
2023-08-15T13:56:55.374Z,35.22
2023-08-15T13:59:58.379Z,34.41
2023-08-15T14:03:02.315Z,34.80
2023-08-15T14:06:05.872Z,35.19
2023-08-15T14:09:08.426Z,34.87
2023-08-15T14:12:11.091Z,34.45
2023-08-15T14:15:14.192Z,34.56
2023-08-15T14:18:18.077Z,34.27
2023-08-15T14:21:20.605Z,34.52
2023-08-15T14:24:23.412Z,34.78
2023-08-15T14:27:26.094Z,34.61
2023-08-15T14:30:29.044Z,34.30
2023-08-15T14:33:32.972Z,34.28
2023-08-15T14:36:36.492Z,33.56
2023-08-15T14:39:39.015Z,33.54
2023-08-15T14:42:41.867Z,33.42
2023-08-15T14:45:44.449Z,33.22
2023-08-15T14:48:48.327Z,33.14
2023-08-15T14:51:50.935Z,33.47
2023-08-15T14:54:53.669Z,33.85
2023-08-15T14:57:56.265Z,34.00
2023-08-15T15:00:58.820Z,34.05
2023-08-15T15:04:02.832Z,33.21
2023-08-15T15:07:05.745Z,33.17
2023-08-15T15:10:09.141Z,33.41
2023-08-15T15:13:11.762Z,33.45
2023-08-15T15:16:14.660Z,33.50
2023-08-15T15:19:18.523Z,33.07
2023-08-15T15:22:21.332Z,32.78
2023-08-15T15:25:23.859Z,32.91
2023-08-15T15:28:26.366Z,32.88
2023-08-15T15:31:28.901Z,32.58
2023-08-15T15:34:32.911Z,32.46
2023-08-15T15:37:35.479Z,32.30
2023-08-15T15:40:38.001Z,32.20
2023-08-15T15:43:40.548Z,31.71
2023-08-15T15:46:53.927Z,31.61
2023-08-15T15:49:59.027Z,31.33
2023-08-15T15:53:01.950Z,31.09
2023-08-15T15:56:04.828Z,30.54
2023-08-15T15:59:07.391Z,30.51
2023-08-15T16:02:09.940Z,30.46
2023-08-15T16:05:14.060Z,30.40
2023-08-15T16:08:16.712Z,30.36
2023-08-15T16:11:19.216Z,30.32
2023-08-15T16:14:21.792Z,30.39
2023-08-15T16:17:24.574Z,30.47
2023-08-15T16:20:29.404Z,30.52
2023-08-15T16:23:31.996Z,30.45
2023-08-15T16:26:36.763Z,30.50
2023-08-15T16:29:39.600Z,30.39
2023-08-15T16:32:42.263Z,30.33
2023-08-15T16:35:46.230Z,30.28
2023-08-15T16:38:48.771Z,30.28
2023-08-15T16:41:51.400Z,30.22
2023-08-15T16:44:53.952Z,30.15
2023-08-15T16:47:56.531Z,30.13
2023-08-15T16:51:00.427Z,30.02
2023-08-15T16:54:03.021Z,29.91
2023-08-15T16:57:05.719Z,29.82
2023-08-15T17:00:09.396Z,29.80
2023-08-15T17:03:12.153Z,29.77
2023-08-15T17:06:16.189Z,29.65
2023-08-15T17:09:18.703Z,29.41
2023-08-15T17:12:21.487Z,29.24
2023-08-15T17:15:24.275Z,29.06
2023-08-15T17:18:27.328Z,28.97
2023-08-15T17:21:31.184Z,28.90
